sensor_id;sensor_type;location;lat;lon;timestamp;P1;durP1;ratioP1;P2;durP2;ratioP2
49962;SDS011;36180;57.678;11.910;2022-12-18T00:02:08;74.82;;;28.25;;
49962;SDS011;36180;57.678;11.910;2022-12-18T00:04:35;80.93;;;28.85;;
49962;SDS011;36180;57.678;11.910;2022-12-18T00:07:02;83.15;;;29.10;;
49962;SDS011;36180;57.678;11.910;2022-12-18T00:09:29;79.72;;;29.73;;
49962;SDS011;36180;57.678;11.910;2022-12-18T00:11:58;81.05;;;30.20;;
49962;SDS011;36180;57.678;11.910;2022-12-18T00:14:25;94.38;;;29.95;;
49962;SDS011;36180;57.678;11.910;2022-12-18T00:16:52;93.45;;;31.80;;
49962;SDS011;36180;57.678;11.910;2022-12-18T00:19:19;101.07;;;32.38;;
49962;SDS011;36180;57.678;11.910;2022-12-18T00:21:46;109.47;;;33.08;;
49962;SDS011;36180;57.678;11.910;2022-12-18T00:24:13;105.30;;;33.67;;
49962;SDS011;36180;57.678;11.910;2022-12-18T00:26:42;100.57;;;33.00;;
49962;SDS011;36180;57.678;11.910;2022-12-18T00:29:12;104.38;;;33.80;;
49962;SDS011;36180;57.678;11.910;2022-12-18T00:31:40;91.38;;;31.73;;
49962;SDS011;36180;57.678;11.910;2022-12-18T00:34:08;97.78;;;32.08;;
49962;SDS011;36180;57.678;11.910;2022-12-18T00:36:39;97.82;;;31.58;;
49962;SDS011;36180;57.678;11.910;2022-12-18T00:39:06;108.75;;;33.13;;
49962;SDS011;36180;57.678;11.910;2022-12-18T00:41:34;95.60;;;33.17;;
49962;SDS011;36180;57.678;11.910;2022-12-18T00:44:20;95.90;;;32.20;;
49962;SDS011;36180;57.678;11.910;2022-12-18T00:46:47;98.88;;;31.85;;
49962;SDS011;36180;57.678;11.910;2022-12-18T00:49:15;99.68;;;33.17;;
49962;SDS011;36180;57.678;11.910;2022-12-18T00:51:43;101.72;;;33.40;;
49962;SDS011;36180;57.678;11.910;2022-12-18T00:54:10;115.32;;;35.60;;
49962;SDS011;36180;57.678;11.910;2022-12-18T00:56:37;105.10;;;33.83;;
49962;SDS011;36180;57.678;11.910;2022-12-18T00:59:04;111.70;;;35.13;;
49962;SDS011;36180;57.678;11.910;2022-12-18T01:01:33;118.38;;;36.42;;
49962;SDS011;36180;57.678;11.910;2022-12-18T01:04:00;111.53;;;35.85;;
49962;SDS011;36180;57.678;11.910;2022-12-18T01:06:28;127.22;;;36.03;;
49962;SDS011;36180;57.678;11.910;2022-12-18T01:08:56;112.57;;;34.63;;
49962;SDS011;36180;57.678;11.910;2022-12-18T01:11:23;103.88;;;33.58;;
49962;SDS011;36180;57.678;11.910;2022-12-18T01:13:51;125.82;;;36.38;;
49962;SDS011;36180;57.678;11.910;2022-12-18T01:16:21;119.40;;;34.03;;
49962;SDS011;36180;57.678;11.910;2022-12-18T01:18:52;124.32;;;34.58;;
49962;SDS011;36180;57.678;11.910;2022-12-18T01:21:20;105.65;;;34.20;;
49962;SDS011;36180;57.678;11.910;2022-12-18T01:23:50;127.90;;;37.30;;
49962;SDS011;36180;57.678;11.910;2022-12-18T01:26:18;110.60;;;34.47;;
49962;SDS011;36180;57.678;11.910;2022-12-18T01:28:45;116.22;;;35.55;;
49962;SDS011;36180;57.678;11.910;2022-12-18T01:31:13;109.97;;;33.35;;
49962;SDS011;36180;57.678;11.910;2022-12-18T01:33:42;111.35;;;33.70;;
49962;SDS011;36180;57.678;11.910;2022-12-18T01:36:15;113.25;;;33.22;;
49962;SDS011;36180;57.678;11.910;2022-12-18T01:38:43;112.53;;;33.65;;
49962;SDS011;36180;57.678;11.910;2022-12-18T01:41:11;109.25;;;34.35;;
49962;SDS011;36180;57.678;11.910;2022-12-18T01:43:41;108.85;;;31.48;;
49962;SDS011;36180;57.678;11.910;2022-12-18T01:46:14;96.53;;;30.35;;
49962;SDS011;36180;57.678;11.910;2022-12-18T01:48:42;99.78;;;32.60;;
49962;SDS011;36180;57.678;11.910;2022-12-18T01:51:11;102.55;;;31.75;;
49962;SDS011;36180;57.678;11.910;2022-12-18T01:53:41;109.53;;;30.90;;
49962;SDS011;36180;57.678;11.910;2022-12-18T01:56:11;89.90;;;29.17;;
49962;SDS011;36180;57.678;11.910;2022-12-18T01:58:41;104.70;;;30.25;;
49962;SDS011;36180;57.678;11.910;2022-12-18T02:01:13;105.50;;;28.60;;
49962;SDS011;36180;57.678;11.910;2022-12-18T02:03:40;108.03;;;31.42;;
49962;SDS011;36180;57.678;11.910;2022-12-18T02:06:10;112.50;;;29.17;;
49962;SDS011;36180;57.678;11.910;2022-12-18T02:08:43;102.78;;;30.23;;
49962;SDS011;36180;57.678;11.910;2022-12-18T02:11:20;115.72;;;31.58;;
49962;SDS011;36180;57.678;11.910;2022-12-18T02:13:57;117.18;;;30.02;;
49962;SDS011;36180;57.678;11.910;2022-12-18T02:16:29;101.88;;;28.38;;
49962;SDS011;36180;57.678;11.910;2022-12-18T02:19:03;86.50;;;25.45;;
49962;SDS011;36180;57.678;11.910;2022-12-18T02:21:39;79.28;;;23.63;;
49962;SDS011;36180;57.678;11.910;2022-12-18T02:24:16;80.18;;;25.02;;
49962;SDS011;36180;57.678;11.910;2022-12-18T02:26:49;80.90;;;22.48;;
49962;SDS011;36180;57.678;11.910;2022-12-18T02:29:21;80.30;;;23.05;;
49962;SDS011;36180;57.678;11.910;2022-12-18T02:31:53;74.32;;;22.10;;
49962;SDS011;36180;57.678;11.910;2022-12-18T02:34:24;78.95;;;22.60;;
49962;SDS011;36180;57.678;11.910;2022-12-18T02:36:53;68.75;;;21.60;;
49962;SDS011;36180;57.678;11.910;2022-12-18T02:39:21;75.80;;;22.73;;
49962;SDS011;36180;57.678;11.910;2022-12-18T02:42:02;70.68;;;21.15;;
49962;SDS011;36180;57.678;11.910;2022-12-18T02:44:33;67.90;;;21.55;;
49962;SDS011;36180;57.678;11.910;2022-12-18T02:47:01;78.30;;;22.20;;
49962;SDS011;36180;57.678;11.910;2022-12-18T02:49:31;69.63;;;21.95;;
49962;SDS011;36180;57.678;11.910;2022-12-18T02:52:05;69.13;;;19.25;;
49962;SDS011;36180;57.678;11.910;2022-12-18T02:54:41;66.88;;;20.05;;
49962;SDS011;36180;57.678;11.910;2022-12-18T02:57:18;66.28;;;20.00;;
49962;SDS011;36180;57.678;11.910;2022-12-18T02:59:49;59.67;;;18.95;;
49962;SDS011;36180;57.678;11.910;2022-12-18T03:02:23;69.50;;;19.67;;
49962;SDS011;36180;57.678;11.910;2022-12-18T03:04:55;57.72;;;20.15;;
49962;SDS011;36180;57.678;11.910;2022-12-18T03:07:26;66.13;;;21.13;;
49962;SDS011;36180;57.678;11.910;2022-12-18T03:10:00;60.28;;;19.95;;
49962;SDS011;36180;57.678;11.910;2022-12-18T03:12:30;64.93;;;20.80;;
49962;SDS011;36180;57.678;11.910;2022-12-18T03:14:59;56.55;;;19.70;;
49962;SDS011;36180;57.678;11.910;2022-12-18T03:17:29;53.72;;;19.77;;
49962;SDS011;36180;57.678;11.910;2022-12-18T03:20:00;68.47;;;20.55;;
49962;SDS011;36180;57.678;11.910;2022-12-18T03:22:32;60.13;;;19.65;;
49962;SDS011;36180;57.678;11.910;2022-12-18T03:25:02;57.92;;;20.25;;
49962;SDS011;36180;57.678;11.910;2022-12-18T03:27:35;51.45;;;19.30;;
49962;SDS011;36180;57.678;11.910;2022-12-18T03:30:07;53.42;;;18.88;;
49962;SDS011;36180;57.678;11.910;2022-12-18T03:32:38;64.18;;;19.67;;
49962;SDS011;36180;57.678;11.910;2022-12-18T03:35:08;73.57;;;21.80;;
49962;SDS011;36180;57.678;11.910;2022-12-18T03:37:36;53.72;;;19.02;;
49962;SDS011;36180;57.678;11.910;2022-12-18T03:40:04;58.85;;;20.10;;
49962;SDS011;36180;57.678;11.910;2022-12-18T03:42:37;56.70;;;19.85;;
49962;SDS011;36180;57.678;11.910;2022-12-18T03:45:10;62.80;;;20.88;;
49962;SDS011;36180;57.678;11.910;2022-12-18T03:50:11;60.42;;;20.25;;
49962;SDS011;36180;57.678;11.910;2022-12-18T03:52:45;66.10;;;20.90;;
49962;SDS011;36180;57.678;11.910;2022-12-18T03:55:16;60.28;;;21.30;;
49962;SDS011;36180;57.678;11.910;2022-12-18T03:57:48;60.00;;;20.58;;
49962;SDS011;36180;57.678;11.910;2022-12-18T04:00:17;56.85;;;19.50;;
49962;SDS011;36180;57.678;11.910;2022-12-18T04:03:07;67.05;;;20.92;;
49962;SDS011;36180;57.678;11.910;2022-12-18T04:05:43;60.00;;;19.23;;
49962;SDS011;36180;57.678;11.910;2022-12-18T04:08:11;57.95;;;19.95;;
49962;SDS011;36180;57.678;11.910;2022-12-18T04:10:42;56.40;;;19.42;;
49962;SDS011;36180;57.678;11.910;2022-12-18T04:13:11;52.08;;;17.83;;
49962;SDS011;36180;57.678;11.910;2022-12-18T04:15:39;48.85;;;18.23;;
49962;SDS011;36180;57.678;11.910;2022-12-18T04:18:11;59.55;;;18.60;;
49962;SDS011;36180;57.678;11.910;2022-12-18T04:20:41;49.90;;;18.00;;
49962;SDS011;36180;57.678;11.910;2022-12-18T04:23:10;62.63;;;18.73;;
49962;SDS011;36180;57.678;11.910;2022-12-18T04:25:38;47.95;;;17.85;;
49962;SDS011;36180;57.678;11.910;2022-12-18T04:28:11;46.80;;;16.33;;
49962;SDS011;36180;57.678;11.910;2022-12-18T04:30:38;48.88;;;17.50;;
49962;SDS011;36180;57.678;11.910;2022-12-18T04:33:08;48.88;;;17.15;;
49962;SDS011;36180;57.678;11.910;2022-12-18T04:35:36;47.05;;;16.20;;
49962;SDS011;36180;57.678;11.910;2022-12-18T04:38:03;50.47;;;17.05;;
49962;SDS011;36180;57.678;11.910;2022-12-18T04:40:34;46.50;;;16.83;;
49962;SDS011;36180;57.678;11.910;2022-12-18T04:43:04;45.97;;;16.10;;
49962;SDS011;36180;57.678;11.910;2022-12-18T04:45:33;43.03;;;16.20;;
49962;SDS011;36180;57.678;11.910;2022-12-18T04:48:00;41.53;;;15.05;;
49962;SDS011;36180;57.678;11.910;2022-12-18T04:50:28;43.78;;;14.65;;
49962;SDS011;36180;57.678;11.910;2022-12-18T04:52:56;36.83;;;13.02;;
49962;SDS011;36180;57.678;11.910;2022-12-18T04:55:26;34.85;;;14.63;;
49962;SDS011;36180;57.678;11.910;2022-12-18T04:57:53;36.10;;;13.10;;
49962;SDS011;36180;57.678;11.910;2022-12-18T05:00:20;36.22;;;12.50;;
49962;SDS011;36180;57.678;11.910;2022-12-18T05:02:49;32.95;;;12.40;;
49962;SDS011;36180;57.678;11.910;2022-12-18T05:05:16;32.85;;;12.45;;
49962;SDS011;36180;57.678;11.910;2022-12-18T05:07:43;35.47;;;11.32;;
49962;SDS011;36180;57.678;11.910;2022-12-18T05:10:11;36.63;;;12.02;;
49962;SDS011;36180;57.678;11.910;2022-12-18T05:12:38;32.70;;;10.57;;
49962;SDS011;36180;57.678;11.910;2022-12-18T05:15:23;28.23;;;10.52;;
49962;SDS011;36180;57.678;11.910;2022-12-18T05:17:52;31.85;;;10.60;;
49962;SDS011;36180;57.678;11.910;2022-12-18T05:20:19;38.15;;;12.15;;
49962;SDS011;36180;57.678;11.910;2022-12-18T05:22:46;23.35;;;9.13;;
49962;SDS011;36180;57.678;11.910;2022-12-18T05:25:13;27.42;;;9.90;;
49962;SDS011;36180;57.678;11.910;2022-12-18T05:27:41;25.17;;;9.00;;
49962;SDS011;36180;57.678;11.910;2022-12-18T05:30:08;26.58;;;8.07;;
49962;SDS011;36180;57.678;11.910;2022-12-18T05:32:36;31.38;;;8.25;;
49962;SDS011;36180;57.678;11.910;2022-12-18T05:35:05;21.27;;;8.10;;
49962;SDS011;36180;57.678;11.910;2022-12-18T05:37:33;22.98;;;8.40;;
49962;SDS011;36180;57.678;11.910;2022-12-18T05:40:00;25.02;;;8.68;;
49962;SDS011;36180;57.678;11.910;2022-12-18T05:42:27;27.83;;;8.80;;
49962;SDS011;36180;57.678;11.910;2022-12-18T05:44:55;23.17;;;8.20;;
49962;SDS011;36180;57.678;11.910;2022-12-18T05:47:22;29.02;;;9.57;;
49962;SDS011;36180;57.678;11.910;2022-12-18T05:49:49;19.45;;;7.78;;
49962;SDS011;36180;57.678;11.910;2022-12-18T05:52:17;23.10;;;8.00;;
49962;SDS011;36180;57.678;11.910;2022-12-18T05:54:44;24.23;;;8.93;;
49962;SDS011;36180;57.678;11.910;2022-12-18T05:57:11;23.33;;;9.13;;
49962;SDS011;36180;57.678;11.910;2022-12-18T05:59:38;19.73;;;8.27;;
49962;SDS011;36180;57.678;11.910;2022-12-18T06:02:05;21.30;;;7.75;;
49962;SDS011;36180;57.678;11.910;2022-12-18T06:04:32;22.98;;;8.27;;
49962;SDS011;36180;57.678;11.910;2022-12-18T06:07:03;20.00;;;8.27;;
49962;SDS011;36180;57.678;11.910;2022-12-18T06:09:31;21.17;;;8.00;;
49962;SDS011;36180;57.678;11.910;2022-12-18T06:11:58;20.30;;;8.52;;
49962;SDS011;36180;57.678;11.910;2022-12-18T06:14:25;23.35;;;7.95;;
49962;SDS011;36180;57.678;11.910;2022-12-18T06:16:52;23.88;;;8.45;;
49962;SDS011;36180;57.678;11.910;2022-12-18T06:19:19;25.48;;;7.78;;
49962;SDS011;36180;57.678;11.910;2022-12-18T06:21:46;26.02;;;8.52;;
49962;SDS011;36180;57.678;11.910;2022-12-18T06:24:14;22.50;;;7.45;;
49962;SDS011;36180;57.678;11.910;2022-12-18T06:26:42;21.73;;;7.68;;
49962;SDS011;36180;57.678;11.910;2022-12-18T06:29:10;21.80;;;7.95;;
49962;SDS011;36180;57.678;11.910;2022-12-18T06:31:37;19.63;;;7.95;;
49962;SDS011;36180;57.678;11.910;2022-12-18T06:34:04;21.45;;;8.25;;
49962;SDS011;36180;57.678;11.910;2022-12-18T06:36:31;28.15;;;8.68;;
49962;SDS011;36180;57.678;11.910;2022-12-18T06:38:58;26.48;;;7.57;;
49962;SDS011;36180;57.678;11.910;2022-12-18T06:41:25;24.10;;;7.35;;
49962;SDS011;36180;57.678;11.910;2022-12-18T06:43:54;23.52;;;7.20;;
49962;SDS011;36180;57.678;11.910;2022-12-18T06:46:21;22.27;;;7.55;;
49962;SDS011;36180;57.678;11.910;2022-12-18T06:48:48;27.90;;;7.40;;
49962;SDS011;36180;57.678;11.910;2022-12-18T06:51:19;23.60;;;7.57;;
49962;SDS011;36180;57.678;11.910;2022-12-18T06:53:47;24.20;;;8.07;;
49962;SDS011;36180;57.678;11.910;2022-12-18T06:56:14;21.45;;;6.93;;
49962;SDS011;36180;57.678;11.910;2022-12-18T06:58:42;18.45;;;7.00;;
49962;SDS011;36180;57.678;11.910;2022-12-18T07:01:10;22.83;;;7.18;;
49962;SDS011;36180;57.678;11.910;2022-12-18T07:03:38;21.00;;;7.13;;
49962;SDS011;36180;57.678;11.910;2022-12-18T07:06:05;20.60;;;6.82;;
49962;SDS011;36180;57.678;11.910;2022-12-18T07:08:33;26.00;;;6.65;;
49962;SDS011;36180;57.678;11.910;2022-12-18T07:11:02;20.23;;;6.90;;
49962;SDS011;36180;57.678;11.910;2022-12-18T07:13:30;22.52;;;6.60;;
49962;SDS011;36180;57.678;11.910;2022-12-18T07:16:02;21.10;;;6.63;;
49962;SDS011;36180;57.678;11.910;2022-12-18T07:18:35;23.33;;;6.28;;
49962;SDS011;36180;57.678;11.910;2022-12-18T07:21:03;19.63;;;6.15;;
49962;SDS011;36180;57.678;11.910;2022-12-18T07:23:31;19.48;;;5.80;;
49962;SDS011;36180;57.678;11.910;2022-12-18T07:26:00;21.67;;;5.93;;
49962;SDS011;36180;57.678;11.910;2022-12-18T07:28:28;21.50;;;5.75;;
49962;SDS011;36180;57.678;11.910;2022-12-18T07:30:55;24.88;;;6.47;;
49962;SDS011;36180;57.678;11.910;2022-12-18T07:33:24;19.27;;;5.13;;
49962;SDS011;36180;57.678;11.910;2022-12-18T07:35:52;23.15;;;6.03;;
49962;SDS011;36180;57.678;11.910;2022-12-18T07:38:19;25.85;;;6.28;;
49962;SDS011;36180;57.678;11.910;2022-12-18T07:40:46;25.40;;;5.50;;
49962;SDS011;36180;57.678;11.910;2022-12-18T07:43:14;18.65;;;5.47;;
49962;SDS011;36180;57.678;11.910;2022-12-18T07:45:41;17.45;;;5.50;;
49962;SDS011;36180;57.678;11.910;2022-12-18T07:48:09;18.77;;;5.28;;
49962;SDS011;36180;57.678;11.910;2022-12-18T07:50:36;23.65;;;5.45;;
49962;SDS011;36180;57.678;11.910;2022-12-18T07:53:04;18.63;;;4.63;;
49962;SDS011;36180;57.678;11.910;2022-12-18T07:55:31;16.45;;;5.25;;
49962;SDS011;36180;57.678;11.910;2022-12-18T07:58:00;19.23;;;6.07;;
49962;SDS011;36180;57.678;11.910;2022-12-18T08:00:28;20.05;;;5.00;;
49962;SDS011;36180;57.678;11.910;2022-12-18T08:02:55;29.23;;;7.32;;
49962;SDS011;36180;57.678;11.910;2022-12-18T08:05:22;25.45;;;9.18;;
49962;SDS011;36180;57.678;11.910;2022-12-18T08:07:49;28.10;;;6.50;;
49962;SDS011;36180;57.678;11.910;2022-12-18T08:10:18;25.42;;;6.45;;
49962;SDS011;36180;57.678;11.910;2022-12-18T08:12:45;21.38;;;5.80;;
49962;SDS011;36180;57.678;11.910;2022-12-18T08:15:14;23.85;;;5.90;;
49962;SDS011;36180;57.678;11.910;2022-12-18T08:17:41;20.40;;;6.88;;
49962;SDS011;36180;57.678;11.910;2022-12-18T08:20:09;19.75;;;6.50;;
49962;SDS011;36180;57.678;11.910;2022-12-18T08:22:36;20.05;;;6.03;;
49962;SDS011;36180;57.678;11.910;2022-12-18T08:25:04;20.73;;;5.78;;
49962;SDS011;36180;57.678;11.910;2022-12-18T08:27:33;20.00;;;6.20;;
49962;SDS011;36180;57.678;11.910;2022-12-18T08:30:00;20.10;;;6.75;;
49962;SDS011;36180;57.678;11.910;2022-12-18T08:32:28;24.75;;;6.38;;
49962;SDS011;36180;57.678;11.910;2022-12-18T08:34:55;23.17;;;6.38;;
49962;SDS011;36180;57.678;11.910;2022-12-18T08:37:22;23.55;;;7.55;;
49962;SDS011;36180;57.678;11.910;2022-12-18T08:39:49;25.13;;;7.32;;
49962;SDS011;36180;57.678;11.910;2022-12-18T08:42:16;22.13;;;7.40;;
49962;SDS011;36180;57.678;11.910;2022-12-18T08:45:02;24.85;;;8.27;;
49962;SDS011;36180;57.678;11.910;2022-12-18T08:47:30;24.30;;;8.38;;
49962;SDS011;36180;57.678;11.910;2022-12-18T08:49:57;24.27;;;8.15;;
49962;SDS011;36180;57.678;11.910;2022-12-18T08:52:24;26.40;;;7.88;;
49962;SDS011;36180;57.678;11.910;2022-12-18T08:54:51;27.20;;;7.22;;
49962;SDS011;36180;57.678;11.910;2022-12-18T08:57:18;19.60;;;6.78;;
49962;SDS011;36180;57.678;11.910;2022-12-18T08:59:45;24.92;;;8.15;;
49962;SDS011;36180;57.678;11.910;2022-12-18T09:02:14;23.75;;;8.00;;
49962;SDS011;36180;57.678;11.910;2022-12-18T09:04:42;27.83;;;9.02;;
49962;SDS011;36180;57.678;11.910;2022-12-18T09:07:09;22.42;;;8.23;;
49962;SDS011;36180;57.678;11.910;2022-12-18T09:09:36;33.67;;;9.57;;
49962;SDS011;36180;57.678;11.910;2022-12-18T09:12:03;32.28;;;8.95;;
49962;SDS011;36180;57.678;11.910;2022-12-18T09:14:30;23.60;;;8.50;;
49962;SDS011;36180;57.678;11.910;2022-12-18T09:16:57;27.13;;;8.98;;
49962;SDS011;36180;57.678;11.910;2022-12-18T09:19:26;31.83;;;10.65;;
49962;SDS011;36180;57.678;11.910;2022-12-18T09:21:53;20.48;;;9.05;;
49962;SDS011;36180;57.678;11.910;2022-12-18T09:24:23;25.25;;;8.43;;
49962;SDS011;36180;57.678;11.910;2022-12-18T09:26:52;33.58;;;8.80;;
49962;SDS011;36180;57.678;11.910;2022-12-18T09:29:19;24.73;;;8.45;;
49962;SDS011;36180;57.678;11.910;2022-12-18T09:31:46;31.55;;;9.73;;
49962;SDS011;36180;57.678;11.910;2022-12-18T09:34:14;30.98;;;10.10;;
49962;SDS011;36180;57.678;11.910;2022-12-18T09:36:43;29.20;;;9.10;;
49962;SDS011;36180;57.678;11.910;2022-12-18T09:39:10;28.20;;;8.25;;
49962;SDS011;36180;57.678;11.910;2022-12-18T09:41:44;29.17;;;9.10;;
49962;SDS011;36180;57.678;11.910;2022-12-18T09:44:23;32.60;;;8.73;;
49962;SDS011;36180;57.678;11.910;2022-12-18T09:46:53;28.73;;;9.10;;
49962;SDS011;36180;57.678;11.910;2022-12-18T09:49:25;22.73;;;8.80;;
49962;SDS011;36180;57.678;11.910;2022-12-18T09:51:59;22.97;;;7.67;;
49962;SDS011;36180;57.678;11.910;2022-12-18T09:56:57;25.20;;;7.78;;
49962;SDS011;36180;57.678;11.910;2022-12-18T09:59:25;24.98;;;7.55;;
49962;SDS011;36180;57.678;11.910;2022-12-18T10:01:57;27.73;;;8.82;;
49962;SDS011;36180;57.678;11.910;2022-12-18T10:04:24;25.20;;;8.00;;
49962;SDS011;36180;57.678;11.910;2022-12-18T10:06:54;24.02;;;7.15;;
49962;SDS011;36180;57.678;11.910;2022-12-18T10:09:28;26.10;;;7.47;;
49962;SDS011;36180;57.678;11.910;2022-12-18T10:12:00;28.00;;;8.45;;
49962;SDS011;36180;57.678;11.910;2022-12-18T10:14:34;34.45;;;10.00;;
49962;SDS011;36180;57.678;11.910;2022-12-18T10:17:06;24.93;;;7.57;;
49962;SDS011;36180;57.678;11.910;2022-12-18T10:19:40;24.50;;;6.70;;
49962;SDS011;36180;57.678;11.910;2022-12-18T10:22:19;28.30;;;7.15;;
49962;SDS011;36180;57.678;11.910;2022-12-18T10:24:53;19.98;;;6.10;;
49962;SDS011;36180;57.678;11.910;2022-12-18T10:27:23;25.63;;;6.57;;
49962;SDS011;36180;57.678;11.910;2022-12-18T10:29:52;21.00;;;6.43;;
49962;SDS011;36180;57.678;11.910;2022-12-18T10:32:21;20.92;;;6.25;;
49962;SDS011;36180;57.678;11.910;2022-12-18T10:34:52;23.08;;;6.78;;
49962;SDS011;36180;57.678;11.910;2022-12-18T10:37:22;22.52;;;5.18;;
49962;SDS011;36180;57.678;11.910;2022-12-18T10:40:04;20.65;;;5.57;;
49962;SDS011;36180;57.678;11.910;2022-12-18T10:42:35;21.45;;;5.05;;
49962;SDS011;36180;57.678;11.910;2022-12-18T10:45:03;19.45;;;5.72;;
49962;SDS011;36180;57.678;11.910;2022-12-18T10:47:41;18.27;;;5.13;;
49962;SDS011;36180;57.678;11.910;2022-12-18T10:50:16;16.42;;;5.97;;
49962;SDS011;36180;57.678;11.910;2022-12-18T10:52:53;18.02;;;5.03;;
49962;SDS011;36180;57.678;11.910;2022-12-18T10:55:21;19.38;;;5.57;;
49962;SDS011;36180;57.678;11.910;2022-12-18T10:57:49;22.13;;;5.20;;
49962;SDS011;36180;57.678;11.910;2022-12-18T11:00:23;19.70;;;5.10;;
49962;SDS011;36180;57.678;11.910;2022-12-18T11:02:51;22.10;;;5.80;;
49962;SDS011;36180;57.678;11.910;2022-12-18T11:05:25;20.63;;;5.47;;
49962;SDS011;36180;57.678;11.910;2022-12-18T11:07:56;23.48;;;5.18;;
49962;SDS011;36180;57.678;11.910;2022-12-18T11:10:26;20.33;;;5.32;;
49962;SDS011;36180;57.678;11.910;2022-12-18T11:12:56;15.77;;;5.07;;
49962;SDS011;36180;57.678;11.910;2022-12-18T11:15:39;24.73;;;7.35;;
49962;SDS011;36180;57.678;11.910;2022-12-18T11:18:14;25.27;;;6.85;;
49962;SDS011;36180;57.678;11.910;2022-12-18T11:20:43;17.95;;;6.57;;
49962;SDS011;36180;57.678;11.910;2022-12-18T11:23:19;22.20;;;6.30;;
49962;SDS011;36180;57.678;11.910;2022-12-18T11:25:51;25.63;;;7.00;;
49962;SDS011;36180;57.678;11.910;2022-12-18T11:31:16;19.88;;;6.50;;
49962;SDS011;36180;57.678;11.910;2022-12-18T11:33:53;23.75;;;7.18;;
49962;SDS011;36180;57.678;11.910;2022-12-18T11:36:23;24.35;;;6.75;;
49962;SDS011;36180;57.678;11.910;2022-12-18T11:38:52;28.23;;;8.35;;
49962;SDS011;36180;57.678;11.910;2022-12-18T11:41:23;21.80;;;6.85;;
49962;SDS011;36180;57.678;11.910;2022-12-18T11:44:15;23.40;;;6.20;;
49962;SDS011;36180;57.678;11.910;2022-12-18T11:46:47;16.02;;;5.40;;
49962;SDS011;36180;57.678;11.910;2022-12-18T11:49:17;21.40;;;6.00;;
49962;SDS011;36180;57.678;11.910;2022-12-18T11:51:50;23.42;;;6.60;;
49962;SDS011;36180;57.678;11.910;2022-12-18T11:54:22;26.38;;;7.20;;
49962;SDS011;36180;57.678;11.910;2022-12-18T11:56:51;20.60;;;6.32;;
49962;SDS011;36180;57.678;11.910;2022-12-18T11:59:24;22.73;;;7.30;;
49962;SDS011;36180;57.678;11.910;2022-12-18T12:01:58;17.50;;;7.47;;
49962;SDS011;36180;57.678;11.910;2022-12-18T12:04:37;22.38;;;6.40;;
49962;SDS011;36180;57.678;11.910;2022-12-18T12:07:17;30.25;;;7.32;;
49962;SDS011;36180;57.678;11.910;2022-12-18T12:09:53;24.50;;;8.23;;
49962;SDS011;36180;57.678;11.910;2022-12-18T12:12:27;28.70;;;6.57;;
49962;SDS011;36180;57.678;11.910;2022-12-18T12:15:13;21.25;;;7.55;;
49962;SDS011;36180;57.678;11.910;2022-12-18T12:17:47;20.48;;;6.05;;
49962;SDS011;36180;57.678;11.910;2022-12-18T12:20:19;20.92;;;6.55;;
49962;SDS011;36180;57.678;11.910;2022-12-18T12:22:50;27.15;;;7.32;;
49962;SDS011;36180;57.678;11.910;2022-12-18T12:25:28;24.55;;;6.97;;
49962;SDS011;36180;57.678;11.910;2022-12-18T12:28:02;26.27;;;6.30;;
49962;SDS011;36180;57.678;11.910;2022-12-18T12:30:39;27.63;;;6.57;;
49962;SDS011;36180;57.678;11.910;2022-12-18T12:33:15;25.27;;;7.43;;
49962;SDS011;36180;57.678;11.910;2022-12-18T12:35:51;24.20;;;6.28;;
49962;SDS011;36180;57.678;11.910;2022-12-18T12:38:22;17.50;;;5.55;;
49962;SDS011;36180;57.678;11.910;2022-12-18T12:40:54;21.80;;;5.65;;
49962;SDS011;36180;57.678;11.910;2022-12-18T12:45:57;17.98;;;5.18;;
49962;SDS011;36180;57.678;11.910;2022-12-18T12:48:38;16.27;;;4.60;;
49962;SDS011;36180;57.678;11.910;2022-12-18T12:51:10;14.93;;;4.93;;
49962;SDS011;36180;57.678;11.910;2022-12-18T12:56:10;16.38;;;5.30;;
49962;SDS011;36180;57.678;11.910;2022-12-18T12:58:41;15.03;;;4.43;;
49962;SDS011;36180;57.678;11.910;2022-12-18T13:01:17;16.70;;;5.07;;
49962;SDS011;36180;57.678;11.910;2022-12-18T13:03:54;18.63;;;4.70;;
49962;SDS011;36180;57.678;11.910;2022-12-18T13:06:32;21.25;;;4.97;;
49962;SDS011;36180;57.678;11.910;2022-12-18T13:09:03;12.48;;;4.57;;
49962;SDS011;36180;57.678;11.910;2022-12-18T13:11:38;16.42;;;4.40;;
49962;SDS011;36180;57.678;11.910;2022-12-18T13:14:32;14.52;;;3.80;;
49962;SDS011;36180;57.678;11.910;2022-12-18T13:17:20;16.17;;;4.28;;
49962;SDS011;36180;57.678;11.910;2022-12-18T13:22:42;17.30;;;4.93;;
49962;SDS011;36180;57.678;11.910;2022-12-18T13:28:08;15.23;;;5.03;;
49962;SDS011;36180;57.678;11.910;2022-12-18T13:30:47;21.20;;;5.57;;
49962;SDS011;36180;57.678;11.910;2022-12-18T13:33:30;21.23;;;5.05;;
49962;SDS011;36180;57.678;11.910;2022-12-18T13:36:09;21.30;;;5.30;;
49962;SDS011;36180;57.678;11.910;2022-12-18T13:38:41;28.27;;;5.32;;
49962;SDS011;36180;57.678;11.910;2022-12-18T13:41:24;22.42;;;6.07;;
49962;SDS011;36180;57.678;11.910;2022-12-18T13:43:54;16.10;;;5.25;;
49962;SDS011;36180;57.678;11.910;2022-12-18T13:46:42;16.58;;;4.68;;
49962;SDS011;36180;57.678;11.910;2022-12-18T13:49:16;19.92;;;5.10;;
49962;SDS011;36180;57.678;11.910;2022-12-18T13:51:48;22.08;;;5.55;;
49962;SDS011;36180;57.678;11.910;2022-12-18T13:54:18;14.13;;;5.40;;
49962;SDS011;36180;57.678;11.910;2022-12-18T13:56:46;17.13;;;5.25;;
49962;SDS011;36180;57.678;11.910;2022-12-18T13:59:17;15.45;;;4.65;;
49962;SDS011;36180;57.678;11.910;2022-12-18T14:01:46;19.35;;;5.25;;
49962;SDS011;36180;57.678;11.910;2022-12-18T14:04:19;15.82;;;5.40;;
49962;SDS011;36180;57.678;11.910;2022-12-18T14:06:49;19.25;;;5.53;;
49962;SDS011;36180;57.678;11.910;2022-12-18T14:09:19;18.67;;;5.07;;
49962;SDS011;36180;57.678;11.910;2022-12-18T14:11:49;16.30;;;6.45;;
49962;SDS011;36180;57.678;11.910;2022-12-18T14:14:18;15.98;;;5.25;;
49962;SDS011;36180;57.678;11.910;2022-12-18T14:16:46;14.77;;;5.03;;
49962;SDS011;36180;57.678;11.910;2022-12-18T14:19:14;16.00;;;5.03;;
49962;SDS011;36180;57.678;11.910;2022-12-18T14:21:45;19.67;;;5.35;;
49962;SDS011;36180;57.678;11.910;2022-12-18T14:24:13;19.02;;;5.70;;
49962;SDS011;36180;57.678;11.910;2022-12-18T14:26:41;16.80;;;5.15;;
49962;SDS011;36180;57.678;11.910;2022-12-18T14:29:20;18.90;;;6.13;;
49962;SDS011;36180;57.678;11.910;2022-12-18T14:32:04;17.20;;;5.50;;
49962;SDS011;36180;57.678;11.910;2022-12-18T14:34:33;21.70;;;5.93;;
49962;SDS011;36180;57.678;11.910;2022-12-18T14:37:00;20.42;;;6.85;;
49962;SDS011;36180;57.678;11.910;2022-12-18T14:39:27;19.92;;;6.00;;
49962;SDS011;36180;57.678;11.910;2022-12-18T14:41:54;23.88;;;8.00;;
49962;SDS011;36180;57.678;11.910;2022-12-18T14:44:23;21.45;;;7.55;;
49962;SDS011;36180;57.678;11.910;2022-12-18T14:46:50;26.92;;;7.53;;
49962;SDS011;36180;57.678;11.910;2022-12-18T14:49:18;30.88;;;9.98;;
49962;SDS011;36180;57.678;11.910;2022-12-18T14:51:48;27.60;;;10.27;;
49962;SDS011;36180;57.678;11.910;2022-12-18T14:54:17;36.40;;;11.23;;